sensor_id;sensor_type;location;lat;lon;timestamp;P1;durP1;ratioP1;P2;durP2;ratioP2
47481;SDS011;33219;47.410;9.730;2022-11-15T00:00:51;2.15;;;1.30;;
47481;SDS011;33219;47.410;9.730;2022-11-15T00:03:20;2.25;;;1.50;;
47481;SDS011;33219;47.410;9.730;2022-11-15T00:05:50;2.42;;;1.52;;
47481;SDS011;33219;47.410;9.730;2022-11-15T00:08:17;2.50;;;1.57;;
47481;SDS011;33219;47.410;9.730;2022-11-15T00:10:55;3.67;;;1.42;;
47481;SDS011;33219;47.410;9.730;2022-11-15T00:13:23;2.42;;;1.37;;
47481;SDS011;33219;47.410;9.730;2022-11-15T00:15:52;2.47;;;1.32;;
47481;SDS011;33219;47.410;9.730;2022-11-15T00:18:21;5.20;;;1.55;;
47481;SDS011;33219;47.410;9.730;2022-11-15T00:20:49;3.58;;;1.52;;
47481;SDS011;33219;47.410;9.730;2022-11-15T00:23:16;3.72;;;1.37;;
47481;SDS011;33219;47.410;9.730;2022-11-15T00:25:44;3.83;;;1.67;;
47481;SDS011;33219;47.410;9.730;2022-11-15T00:28:12;3.30;;;1.70;;
47481;SDS011;33219;47.410;9.730;2022-11-15T00:30:39;3.87;;;1.80;;
47481;SDS011;33219;47.410;9.730;2022-11-15T00:33:08;2.52;;;1.70;;
47481;SDS011;33219;47.410;9.730;2022-11-15T00:35:36;4.10;;;1.80;;
47481;SDS011;33219;47.410;9.730;2022-11-15T00:38:04;2.52;;;1.70;;
47481;SDS011;33219;47.410;9.730;2022-11-15T00:40:31;2.80;;;1.55;;
47481;SDS011;33219;47.410;9.730;2022-11-15T00:42:59;2.02;;;1.40;;
47481;SDS011;33219;47.410;9.730;2022-11-15T00:45:27;4.85;;;1.50;;
47481;SDS011;33219;47.410;9.730;2022-11-15T00:47:54;3.52;;;1.52;;
47481;SDS011;33219;47.410;9.730;2022-11-15T00:50:22;2.85;;;1.70;;
47481;SDS011;33219;47.410;9.730;2022-11-15T00:52:50;3.27;;;1.50;;
47481;SDS011;33219;47.410;9.730;2022-11-15T00:55:18;2.20;;;1.40;;
47481;SDS011;33219;47.410;9.730;2022-11-15T00:57:46;2.87;;;1.50;;
47481;SDS011;33219;47.410;9.730;2022-11-15T01:00:13;3.12;;;1.60;;
47481;SDS011;33219;47.410;9.730;2022-11-15T01:02:41;3.15;;;1.50;;
47481;SDS011;33219;47.410;9.730;2022-11-15T01:05:09;3.15;;;1.52;;
47481;SDS011;33219;47.410;9.730;2022-11-15T01:07:36;3.15;;;1.72;;
47481;SDS011;33219;47.410;9.730;2022-11-15T01:10:04;1.98;;;1.35;;
47481;SDS011;33219;47.410;9.730;2022-11-15T01:12:32;3.20;;;1.67;;
47481;SDS011;33219;47.410;9.730;2022-11-15T01:15:00;2.27;;;1.40;;
47481;SDS011;33219;47.410;9.730;2022-11-15T01:17:28;2.50;;;1.50;;
47481;SDS011;33219;47.410;9.730;2022-11-15T01:19:56;2.72;;;1.50;;
47481;SDS011;33219;47.410;9.730;2022-11-15T01:22:24;3.15;;;1.85;;
47481;SDS011;33219;47.410;9.730;2022-11-15T01:24:51;2.72;;;1.50;;
47481;SDS011;33219;47.410;9.730;2022-11-15T01:27:19;3.27;;;1.70;;
47481;SDS011;33219;47.410;9.730;2022-11-15T01:29:47;3.87;;;1.60;;
47481;SDS011;33219;47.410;9.730;2022-11-15T01:32:14;2.60;;;1.42;;
47481;SDS011;33219;47.410;9.730;2022-11-15T01:34:42;4.25;;;1.65;;
47481;SDS011;33219;47.410;9.730;2022-11-15T01:37:10;2.95;;;1.80;;
47481;SDS011;33219;47.410;9.730;2022-11-15T01:39:37;3.30;;;1.40;;
47481;SDS011;33219;47.410;9.730;2022-11-15T01:42:05;4.20;;;1.70;;
47481;SDS011;33219;47.410;9.730;2022-11-15T01:47:20;3.17;;;2.02;;
47481;SDS011;33219;47.410;9.730;2022-11-15T01:52:24;2.92;;;1.87;;
47481;SDS011;33219;47.410;9.730;2022-11-15T01:55:08;4.60;;;2.40;;
47481;SDS011;33219;47.410;9.730;2022-11-15T02:00:04;5.85;;;2.40;;
47481;SDS011;33219;47.410;9.730;2022-11-15T02:02:33;5.72;;;2.33;;
47481;SDS011;33219;47.410;9.730;2022-11-15T02:05:02;5.03;;;2.15;;
47481;SDS011;33219;47.410;9.730;2022-11-15T02:07:31;5.45;;;2.02;;
47481;SDS011;33219;47.410;9.730;2022-11-15T02:10:03;3.77;;;2.40;;
47481;SDS011;33219;47.410;9.730;2022-11-15T02:12:36;7.75;;;2.85;;
47481;SDS011;33219;47.410;9.730;2022-11-15T02:15:05;5.33;;;2.60;;
47481;SDS011;33219;47.410;9.730;2022-11-15T02:17:42;6.15;;;3.05;;
47481;SDS011;33219;47.410;9.730;2022-11-15T02:23:20;8.05;;;3.15;;
47481;SDS011;33219;47.410;9.730;2022-11-15T02:26:16;5.80;;;3.27;;
47481;SDS011;33219;47.410;9.730;2022-11-15T02:28:48;6.78;;;3.30;;
47481;SDS011;33219;47.410;9.730;2022-11-15T02:31:45;6.03;;;3.50;;
47481;SDS011;33219;47.410;9.730;2022-11-15T02:40:05;5.87;;;3.47;;
47481;SDS011;33219;47.410;9.730;2022-11-15T02:42:46;7.28;;;4.05;;
47481;SDS011;33219;47.410;9.730;2022-11-15T02:45:34;7.78;;;4.30;;
47481;SDS011;33219;47.410;9.730;2022-11-15T02:48:03;7.62;;;4.42;;
47481;SDS011;33219;47.410;9.730;2022-11-15T02:50:33;7.70;;;5.12;;
47481;SDS011;33219;47.410;9.730;2022-11-15T02:53:01;9.88;;;6.10;;
47481;SDS011;33219;47.410;9.730;2022-11-15T02:55:35;11.97;;;6.40;;
47481;SDS011;33219;47.410;9.730;2022-11-15T03:01:20;18.57;;;11.03;;
47481;SDS011;33219;47.410;9.730;2022-11-15T03:11:47;16.25;;;10.53;;
47481;SDS011;33219;47.410;9.730;2022-11-15T03:14:33;18.10;;;11.10;;
47481;SDS011;33219;47.410;9.730;2022-11-15T03:17:24;18.98;;;11.90;;
47481;SDS011;33219;47.410;9.730;2022-11-15T03:19:55;19.17;;;11.23;;
47481;SDS011;33219;47.410;9.730;2022-11-15T03:22:25;17.70;;;11.40;;
47481;SDS011;33219;47.410;9.730;2022-11-15T03:24:58;18.77;;;12.07;;
47481;SDS011;33219;47.410;9.730;2022-11-15T03:27:31;20.30;;;12.80;;
47481;SDS011;33219;47.410;9.730;2022-11-15T03:30:00;22.20;;;12.93;;
47481;SDS011;33219;47.410;9.730;2022-11-15T03:32:30;21.50;;;13.30;;
47481;SDS011;33219;47.410;9.730;2022-11-15T03:35:07;21.60;;;12.73;;
47481;SDS011;33219;47.410;9.730;2022-11-15T03:37:49;25.00;;;13.70;;
47481;SDS011;33219;47.410;9.730;2022-11-15T03:40:33;22.55;;;12.85;;
47481;SDS011;33219;47.410;9.730;2022-11-15T03:46:11;21.52;;;12.70;;
47481;SDS011;33219;47.410;9.730;2022-11-15T03:48:43;21.87;;;12.60;;
47481;SDS011;33219;47.410;9.730;2022-11-15T03:51:12;23.80;;;14.40;;
47481;SDS011;33219;47.410;9.730;2022-11-15T03:53:41;23.18;;;14.15;;
47481;SDS011;33219;47.410;9.730;2022-11-15T03:56:08;26.17;;;14.58;;
47481;SDS011;33219;47.410;9.730;2022-11-15T03:58:36;25.40;;;13.88;;
47481;SDS011;33219;47.410;9.730;2022-11-15T04:01:04;24.52;;;14.38;;
47481;SDS011;33219;47.410;9.730;2022-11-15T04:03:31;24.92;;;13.48;;
47481;SDS011;33219;47.410;9.730;2022-11-15T04:05:59;23.83;;;14.10;;
47481;SDS011;33219;47.410;9.730;2022-11-15T04:08:26;20.87;;;13.10;;
47481;SDS011;33219;47.410;9.730;2022-11-15T04:10:54;23.40;;;14.20;;
47481;SDS011;33219;47.410;9.730;2022-11-15T04:13:22;21.15;;;13.40;;
47481;SDS011;33219;47.410;9.730;2022-11-15T04:15:49;25.13;;;14.97;;
47481;SDS011;33219;47.410;9.730;2022-11-15T04:18:18;23.73;;;14.20;;
47481;SDS011;33219;47.410;9.730;2022-11-15T04:20:45;22.83;;;14.87;;
47481;SDS011;33219;47.410;9.730;2022-11-15T04:23:30;14.60;;;7.87;;
47481;SDS011;33219;47.410;9.730;2022-11-15T04:26:16;16.83;;;9.20;;
47481;SDS011;33219;47.410;9.730;2022-11-15T04:28:46;8.75;;;5.30;;
47481;SDS011;33219;47.410;9.730;2022-11-15T04:31:32;9.90;;;5.60;;
47481;SDS011;33219;47.410;9.730;2022-11-15T04:33:59;9.17;;;5.60;;
47481;SDS011;33219;47.410;9.730;2022-11-15T04:36:27;10.57;;;6.07;;
47481;SDS011;33219;47.410;9.730;2022-11-15T04:39:13;7.27;;;4.77;;
47481;SDS011;33219;47.410;9.730;2022-11-15T04:41:40;5.43;;;3.40;;
47481;SDS011;33219;47.410;9.730;2022-11-15T04:44:08;5.60;;;3.20;;
47481;SDS011;33219;47.410;9.730;2022-11-15T04:46:35;4.77;;;2.27;;
47481;SDS011;33219;47.410;9.730;2022-11-15T04:49:03;4.33;;;2.57;;
47481;SDS011;33219;47.410;9.730;2022-11-15T04:51:31;5.10;;;2.80;;
47481;SDS011;33219;47.410;9.730;2022-11-15T04:53:58;4.67;;;2.63;;
47481;SDS011;33219;47.410;9.730;2022-11-15T04:56:26;3.40;;;2.23;;
47481;SDS011;33219;47.410;9.730;2022-11-15T04:58:53;6.57;;;2.70;;
47481;SDS011;33219;47.410;9.730;2022-11-15T05:01:21;4.07;;;2.37;;
47481;SDS011;33219;47.410;9.730;2022-11-15T05:03:48;4.47;;;2.30;;
47481;SDS011;33219;47.410;9.730;2022-11-15T05:06:34;4.30;;;2.15;;
47481;SDS011;33219;47.410;9.730;2022-11-15T05:09:02;6.60;;;2.50;;
47481;SDS011;33219;47.410;9.730;2022-11-15T05:11:30;6.08;;;3.30;;
47481;SDS011;33219;47.410;9.730;2022-11-15T05:13:58;6.12;;;3.00;;
47481;SDS011;33219;47.410;9.730;2022-11-15T05:16:25;6.50;;;2.92;;
47481;SDS011;33219;47.410;9.730;2022-11-15T05:18:53;4.53;;;2.60;;
47481;SDS011;33219;47.410;9.730;2022-11-15T05:21:21;4.28;;;2.60;;
47481;SDS011;33219;47.410;9.730;2022-11-15T05:23:49;6.10;;;2.40;;
47481;SDS011;33219;47.410;9.730;2022-11-15T05:26:17;7.03;;;2.70;;
47481;SDS011;33219;47.410;9.730;2022-11-15T05:28:45;7.37;;;3.52;;
47481;SDS011;33219;47.410;9.730;2022-11-15T05:31:13;8.53;;;6.15;;
47481;SDS011;33219;47.410;9.730;2022-11-15T05:33:42;9.90;;;6.05;;
47481;SDS011;33219;47.410;9.730;2022-11-15T05:36:12;9.73;;;6.58;;
47481;SDS011;33219;47.410;9.730;2022-11-15T05:38:45;11.97;;;7.28;;
47481;SDS011;33219;47.410;9.730;2022-11-15T05:41:13;12.23;;;7.87;;
47481;SDS011;33219;47.410;9.730;2022-11-15T05:43:42;11.47;;;8.03;;
47481;SDS011;33219;47.410;9.730;2022-11-15T05:46:11;13.70;;;8.87;;
47481;SDS011;33219;47.410;9.730;2022-11-15T05:48:41;15.70;;;9.67;;
47481;SDS011;33219;47.410;9.730;2022-11-15T05:51:11;15.50;;;8.73;;
47481;SDS011;33219;47.410;9.730;2022-11-15T05:53:41;17.07;;;8.83;;
47481;SDS011;33219;47.410;9.730;2022-11-15T05:56:09;15.73;;;7.93;;
47481;SDS011;33219;47.410;9.730;2022-11-15T05:58:37;12.27;;;6.53;;
47481;SDS011;33219;47.410;9.730;2022-11-15T06:01:05;9.40;;;6.20;;
47481;SDS011;33219;47.410;9.730;2022-11-15T06:03:33;7.17;;;4.30;;
47481;SDS011;33219;47.410;9.730;2022-11-15T06:06:00;6.23;;;3.83;;
47481;SDS011;33219;47.410;9.730;2022-11-15T06:08:28;6.80;;;3.87;;
47481;SDS011;33219;47.410;9.730;2022-11-15T06:10:56;9.27;;;4.63;;
47481;SDS011;33219;47.410;9.730;2022-11-15T06:13:25;7.40;;;3.63;;
47481;SDS011;33219;47.410;9.730;2022-11-15T06:15:55;7.67;;;4.53;;
47481;SDS011;33219;47.410;9.730;2022-11-15T06:18:22;8.43;;;4.80;;
47481;SDS011;33219;47.410;9.730;2022-11-15T06:20:50;13.33;;;7.50;;
47481;SDS011;33219;47.410;9.730;2022-11-15T06:23:18;12.47;;;8.08;;
47481;SDS011;33219;47.410;9.730;2022-11-15T06:25:45;13.45;;;8.85;;
47481;SDS011;33219;47.410;9.730;2022-11-15T06:28:13;16.37;;;10.03;;
47481;SDS011;33219;47.410;9.730;2022-11-15T06:30:40;17.03;;;10.93;;
47481;SDS011;33219;47.410;9.730;2022-11-15T06:33:09;16.60;;;10.40;;
47481;SDS011;33219;47.410;9.730;2022-11-15T06:35:47;19.90;;;11.03;;
47481;SDS011;33219;47.410;9.730;2022-11-15T06:38:17;16.47;;;9.90;;
47481;SDS011;33219;47.410;9.730;2022-11-15T06:40:48;14.27;;;9.17;;
47481;SDS011;33219;47.410;9.730;2022-11-15T07:02:42;22.77;;;10.70;;
47481;SDS011;33219;47.410;9.730;2022-11-15T07:14:49;20.10;;;8.83;;
47481;SDS011;33219;47.410;9.730;2022-11-15T07:30:18;22.02;;;10.48;;
47481;SDS011;33219;47.410;9.730;2022-11-15T07:36:22;16.02;;;8.73;;
47481;SDS011;33219;47.410;9.730;2022-11-15T07:39:15;20.00;;;11.97;;
47481;SDS011;33219;47.410;9.730;2022-11-15T07:45:08;22.42;;;13.18;;
47481;SDS011;33219;47.410;9.730;2022-11-15T07:47:38;15.85;;;11.50;;
47481;SDS011;33219;47.410;9.730;2022-11-15T07:50:08;17.62;;;9.23;;
47481;SDS011;33219;47.410;9.730;2022-11-15T07:52:40;15.25;;;10.23;;
47481;SDS011;33219;47.410;9.730;2022-11-15T07:55:17;16.48;;;10.23;;
47481;SDS011;33219;47.410;9.730;2022-11-15T07:57:50;21.50;;;11.60;;
47481;SDS011;33219;47.410;9.730;2022-11-15T08:00:24;15.68;;;10.50;;
47481;SDS011;33219;47.410;9.730;2022-11-15T08:03:16;15.28;;;9.93;;
47481;SDS011;33219;47.410;9.730;2022-11-15T08:08:05;15.35;;;8.40;;
47481;SDS011;33219;47.410;9.730;2022-11-15T08:10:34;12.82;;;7.95;;
47481;SDS011;33219;47.410;9.730;2022-11-15T08:13:04;14.18;;;8.33;;
47481;SDS011;33219;47.410;9.730;2022-11-15T08:18:27;13.62;;;8.48;;
47481;SDS011;33219;47.410;9.730;2022-11-15T08:20:58;15.83;;;9.23;;
47481;SDS011;33219;47.410;9.730;2022-11-15T08:23:26;13.88;;;7.90;;
47481;SDS011;33219;47.410;9.730;2022-11-15T08:26:11;11.12;;;6.10;;
47481;SDS011;33219;47.410;9.730;2022-11-15T08:28:44;10.13;;;6.20;;
47481;SDS011;33219;47.410;9.730;2022-11-15T08:31:17;10.23;;;6.40;;
47481;SDS011;33219;47.410;9.730;2022-11-15T08:37:04;13.78;;;8.25;;
47481;SDS011;33219;47.410;9.730;2022-11-15T08:39:34;13.13;;;7.62;;
47481;SDS011;33219;47.410;9.730;2022-11-15T08:42:05;11.85;;;7.78;;
47481;SDS011;33219;47.410;9.730;2022-11-15T08:44:42;12.80;;;8.80;;
47481;SDS011;33219;47.410;9.730;2022-11-15T08:47:26;15.90;;;7.90;;
47481;SDS011;33219;47.410;9.730;2022-11-15T08:50:26;13.48;;;7.50;;
47481;SDS011;33219;47.410;9.730;2022-11-15T08:53:07;13.08;;;7.25;;
47481;SDS011;33219;47.410;9.730;2022-11-15T08:55:57;12.30;;;7.45;;
47481;SDS011;33219;47.410;9.730;2022-11-15T08:58:47;10.48;;;7.33;;
47481;SDS011;33219;47.410;9.730;2022-11-15T09:06:54;11.50;;;7.67;;
47481;SDS011;33219;47.410;9.730;2022-11-15T09:10:30;10.55;;;7.42;;
47481;SDS011;33219;47.410;9.730;2022-11-15T09:12:57;12.10;;;7.92;;
47481;SDS011;33219;47.410;9.730;2022-11-15T09:16:22;10.50;;;6.90;;
47481;SDS011;33219;47.410;9.730;2022-11-15T09:18:40;12.35;;;7.17;;
47481;SDS011;33219;47.410;9.730;2022-11-15T09:21:24;8.80;;;6.30;;
47481;SDS011;33219;47.410;9.730;2022-11-15T09:24:05;11.38;;;7.40;;
47481;SDS011;33219;47.410;9.730;2022-11-15T09:26:49;10.60;;;6.60;;
47481;SDS011;33219;47.410;9.730;2022-11-15T09:29:22;10.82;;;6.65;;
47481;SDS011;33219;47.410;9.730;2022-11-15T09:37:51;7.17;;;5.87;;
47481;SDS011;33219;47.410;9.730;2022-11-15T09:40:29;8.28;;;6.30;;
47481;SDS011;33219;47.410;9.730;2022-11-15T09:52:30;9.18;;;5.58;;
47481;SDS011;33219;47.410;9.730;2022-11-15T09:55:07;7.37;;;4.95;;
47481;SDS011;33219;47.410;9.730;2022-11-15T10:01:01;7.03;;;4.62;;
47481;SDS011;33219;47.410;9.730;2022-11-15T10:36:55;10.50;;;6.12;;
47481;SDS011;33219;47.410;9.730;2022-11-15T10:39:38;9.65;;;6.15;;
47481;SDS011;33219;47.410;9.730;2022-11-15T10:42:41;9.78;;;6.53;;
47481;SDS011;33219;47.410;9.730;2022-11-15T11:37:54;8.25;;;6.60;;
47481;SDS011;33219;47.410;9.730;2022-11-15T11:40:35;10.05;;;7.03;;
47481;SDS011;33219;47.410;9.730;2022-11-15T11:52:25;11.00;;;7.90;;
47481;SDS011;33219;47.410;9.730;2022-11-15T11:57:51;11.05;;;8.18;;
47481;SDS011;33219;47.410;9.730;2022-11-15T12:00:25;10.72;;;7.83;;
47481;SDS011;33219;47.410;9.730;2022-11-15T12:03:02;10.32;;;7.87;;
47481;SDS011;33219;47.410;9.730;2022-11-15T12:47:33;10.30;;;7.57;;
47481;SDS011;33219;47.410;9.730;2022-11-15T12:50:11;12.00;;;8.50;;
47481;SDS011;33219;47.410;9.730;2022-11-15T12:53:02;12.13;;;9.05;;
47481;SDS011;33219;47.410;9.730;2022-11-15T12:55:34;12.85;;;9.58;;
47481;SDS011;33219;47.410;9.730;2022-11-15T13:00:58;13.53;;;10.00;;
47481;SDS011;33219;47.410;9.730;2022-11-15T13:03:32;12.65;;;10.28;;
47481;SDS011;33219;47.410;9.730;2022-11-15T13:06:09;14.47;;;10.55;;
47481;SDS011;33219;47.410;9.730;2022-11-15T13:08:43;18.70;;;12.85;;
47481;SDS011;33219;47.410;9.730;2022-11-15T13:19:58;16.65;;;10.63;;
47481;SDS011;33219;47.410;9.730;2022-11-15T13:22:27;13.50;;;9.88;;
47481;SDS011;33219;47.410;9.730;2022-11-15T13:25:15;15.20;;;10.53;;
47481;SDS011;33219;47.410;9.730;2022-11-15T13:27:53;16.67;;;11.05;;
47481;SDS011;33219;47.410;9.730;2022-11-15T13:33:52;16.60;;;10.53;;
47481;SDS011;33219;47.410;9.730;2022-11-15T13:39:41;12.45;;;10.13;;
47481;SDS011;33219;47.410;9.730;2022-11-15T13:42:36;14.93;;;9.70;;
47481;SDS011;33219;47.410;9.730;2022-11-15T13:48:57;14.95;;;11.22;;
47481;SDS011;33219;47.410;9.730;2022-11-15T14:03:58;14.13;;;10.23;;
47481;SDS011;33219;47.410;9.730;2022-11-15T14:16:44;16.90;;;11.25;;
47481;SDS011;33219;47.410;9.730;2022-11-15T14:22:14;16.05;;;10.70;;
47481;SDS011;33219;47.410;9.730;2022-11-15T14:25:35;14.55;;;10.65;;
47481;SDS011;33219;47.410;9.730;2022-11-15T14:27:57;16.23;;;12.05;;
47481;SDS011;33219;47.410;9.730;2022-11-15T14:30:32;18.48;;;12.55;;
47481;SDS011;33219;47.410;9.730;2022-11-15T14:33:02;19.27;;;13.48;;
47481;SDS011;33219;47.410;9.730;2022-11-15T14:35:33;19.98;;;13.08;;
47481;SDS011;33219;47.410;9.730;2022-11-15T14:38:05;17.92;;;12.53;;
47481;SDS011;33219;47.410;9.730;2022-11-15T14:40:36;16.52;;;12.63;;
47481;SDS011;33219;47.410;9.730;2022-11-15T14:43:07;18.85;;;13.15;;
47481;SDS011;33219;47.410;9.730;2022-11-15T14:45:40;17.90;;;12.50;;
47481;SDS011;33219;47.410;9.730;2022-11-15T14:48:16;16.85;;;12.53;;
47481;SDS011;33219;47.410;9.730;2022-11-15T14:50:50;19.15;;;12.98;;
47481;SDS011;33219;47.410;9.730;2022-11-15T14:53:23;19.57;;;12.47;;
47481;SDS011;33219;47.410;9.730;2022-11-15T14:55:55;19.20;;;12.53;;
47481;SDS011;33219;47.410;9.730;2022-11-15T14:58:29;17.10;;;12.78;;
47481;SDS011;33219;47.410;9.730;2022-11-15T15:00:59;19.50;;;12.37;;
47481;SDS011;33219;47.410;9.730;2022-11-15T15:03:35;17.20;;;11.70;;
47481;SDS011;33219;47.410;9.730;2022-11-15T15:06:11;17.40;;;11.85;;
47481;SDS011;33219;47.410;9.730;2022-11-15T15:08:52;16.67;;;11.73;;
47481;SDS011;33219;47.410;9.730;2022-11-15T15:11:34;20.15;;;12.05;;
47481;SDS011;33219;47.410;9.730;2022-11-15T15:14:11;22.58;;;14.03;;
47481;SDS011;33219;47.410;9.730;2022-11-15T15:16:50;23.20;;;13.62;;
47481;SDS011;33219;47.410;9.730;2022-11-15T15:19:22;22.40;;;13.30;;
47481;SDS011;33219;47.410;9.730;2022-11-15T15:24:15;20.95;;;13.22;;
47481;SDS011;33219;47.410;9.730;2022-11-15T15:26:43;19.25;;;13.03;;
47481;SDS011;33219;47.410;9.730;2022-11-15T15:29:14;20.90;;;12.13;;
47481;SDS011;33219;47.410;9.730;2022-11-15T15:31:41;17.75;;;12.40;;
47481;SDS011;33219;47.410;9.730;2022-11-15T15:34:09;23.02;;;13.05;;
47481;SDS011;33219;47.410;9.730;2022-11-15T15:36:37;26.80;;;14.60;;
47481;SDS011;33219;47.410;9.730;2022-11-15T15:39:08;22.55;;;13.93;;
47481;SDS011;33219;47.410;9.730;2022-11-15T15:41:37;20.75;;;14.03;;
47481;SDS011;33219;47.410;9.730;2022-11-15T15:44:05;21.77;;;12.95;;
47481;SDS011;33219;47.410;9.730;2022-11-15T15:46:38;20.95;;;13.03;;
47481;SDS011;33219;47.410;9.730;2022-11-15T15:49:07;18.80;;;12.98;;
47481;SDS011;33219;47.410;9.730;2022-11-15T15:51:36;18.40;;;11.20;;
47481;SDS011;33219;47.410;9.730;2022-11-15T15:54:04;21.35;;;12.90;;
47481;SDS011;33219;47.410;9.730;2022-11-15T15:56:32;17.85;;;11.20;;
47481;SDS011;33219;47.410;9.730;2022-11-15T15:58:59;26.40;;;16.50;;
47481;SDS011;33219;47.410;9.730;2022-11-15T16:01:27;28.45;;;16.97;;
47481;SDS011;33219;47.410;9.730;2022-11-15T16:03:55;18.82;;;12.13;;
47481;SDS011;33219;47.410;9.730;2022-11-15T16:06:29;23.10;;;14.90;;
47481;SDS011;33219;47.410;9.730;2022-11-15T16:08:53;21.65;;;13.10;;
47481;SDS011;33219;47.410;9.730;2022-11-15T16:11:21;19.50;;;12.68;;
47481;SDS011;33219;47.410;9.730;2022-11-15T16:13:48;23.67;;;13.05;;
47481;SDS011;33219;47.410;9.730;2022-11-15T16:16:17;20.50;;;12.78;;
47481;SDS011;33219;47.410;9.730;2022-11-15T16:18:46;21.48;;;13.48;;
47481;SDS011;33219;47.410;9.730;2022-11-15T16:21:14;20.57;;;12.73;;
47481;SDS011;33219;47.410;9.730;2022-11-15T16:23:42;19.98;;;13.48;;
47481;SDS011;33219;47.410;9.730;2022-11-15T16:26:14;21.57;;;13.72;;
47481;SDS011;33219;47.410;9.730;2022-11-15T16:28:54;23.75;;;14.40;;
47481;SDS011;33219;47.410;9.730;2022-11-15T16:31:22;21.70;;;14.43;;
47481;SDS011;33219;47.410;9.730;2022-11-15T16:33:49;19.57;;;14.87;;
47481;SDS011;33219;47.410;9.730;2022-11-15T16:38:50;20.62;;;12.07;;
47481;SDS011;33219;47.410;9.730;2022-11-15T16:41:18;17.50;;;11.70;;
47481;SDS011;33219;47.410;9.730;2022-11-15T16:43:46;18.02;;;11.25;;
47481;SDS011;33219;47.410;9.730;2022-11-15T16:46:32;18.10;;;12.28;;
47481;SDS011;33219;47.410;9.730;2022-11-15T16:48:48;17.55;;;11.88;;
47481;SDS011;33219;47.410;9.730;2022-11-15T16:51:16;16.90;;;11.57;;
47481;SDS011;33219;47.410;9.730;2022-11-15T16:53:43;18.62;;;12.25;;
47481;SDS011;33219;47.410;9.730;2022-11-15T16:56:22;19.87;;;11.88;;
47481;SDS011;33219;47.410;9.730;2022-11-15T16:58:45;19.85;;;11.93;;
47481;SDS011;33219;47.410;9.730;2022-11-15T17:01:16;21.07;;;12.60;;
47481;SDS011;33219;47.410;9.730;2022-11-15T17:03:46;21.07;;;12.47;;
47481;SDS011;33219;47.410;9.730;2022-11-15T17:06:13;22.60;;;13.13;;
47481;SDS011;33219;47.410;9.730;2022-11-15T17:08:43;25.27;;;12.60;;
47481;SDS011;33219;47.410;9.730;2022-11-15T17:11:18;29.92;;;18.07;;
47481;SDS011;33219;47.410;9.730;2022-11-15T17:13:47;32.08;;;21.23;;
47481;SDS011;33219;47.410;9.730;2022-11-15T17:16:16;33.78;;;19.00;;
47481;SDS011;33219;47.410;9.730;2022-11-15T17:18:48;26.77;;;17.95;;
47481;SDS011;33219;47.410;9.730;2022-11-15T17:21:16;20.92;;;15.08;;
47481;SDS011;33219;47.410;9.730;2022-11-15T17:23:47;15.25;;;9.43;;
47481;SDS011;33219;47.410;9.730;2022-11-15T17:26:15;20.62;;;12.58;;
47481;SDS011;33219;47.410;9.730;2022-11-15T17:28:43;24.20;;;13.48;;
47481;SDS011;33219;47.410;9.730;2022-11-15T17:31:11;17.02;;;11.78;;
47481;SDS011;33219;47.410;9.730;2022-11-15T17:33:40;19.37;;;12.28;;
47481;SDS011;33219;47.410;9.730;2022-11-15T17:36:09;25.68;;;14.33;;
47481;SDS011;33219;47.410;9.730;2022-11-15T17:38:40;24.15;;;13.28;;
47481;SDS011;33219;47.410;9.730;2022-11-15T17:41:13;23.45;;;12.23;;
47481;SDS011;33219;47.410;9.730;2022-11-15T17:43:42;18.65;;;10.23;;
47481;SDS011;33219;47.410;9.730;2022-11-15T17:46:12;13.88;;;9.33;;
47481;SDS011;33219;47.410;9.730;2022-11-15T17:48:42;16.82;;;10.82;;
47481;SDS011;33219;47.410;9.730;2022-11-15T17:51:11;18.50;;;12.00;;
47481;SDS011;33219;47.410;9.730;2022-11-15T17:53:41;19.90;;;11.65;;
47481;SDS011;33219;47.410;9.730;2022-11-15T17:56:11;17.62;;;11.33;;
47481;SDS011;33219;47.410;9.730;2022-11-15T17:58:40;18.05;;;12.65;;
47481;SDS011;33219;47.410;9.730;2022-11-15T18:01:20;16.62;;;12.65;;
47481;SDS011;33219;47.410;9.730;2022-11-15T18:03:49;19.30;;;13.60;;
47481;SDS011;33219;47.410;9.730;2022-11-15T18:06:18;19.50;;;11.03;;
47481;SDS011;33219;47.410;9.730;2022-11-15T18:08:47;15.05;;;11.15;;
47481;SDS011;33219;47.410;9.730;2022-11-15T18:11:17;15.15;;;9.20;;
47481;SDS011;33219;47.410;9.730;2022-11-15T18:13:47;14.47;;;9.48;;
47481;SDS011;33219;47.410;9.730;2022-11-15T18:16:18;16.95;;;10.32;;
47481;SDS011;33219;47.410;9.730;2022-11-15T18:18:49;17.65;;;14.05;;
47481;SDS011;33219;47.410;9.730;2022-11-15T18:21:19;16.10;;;12.65;;
47481;SDS011;33219;47.410;9.730;2022-11-15T18:23:48;12.00;;;8.78;;
47481;SDS011;33219;47.410;9.730;2022-11-15T18:26:23;10.53;;;7.83;;
47481;SDS011;33219;47.410;9.730;2022-11-15T18:28:54;11.03;;;7.20;;
47481;SDS011;33219;47.410;9.730;2022-11-15T18:31:27;11.33;;;6.70;;
47481;SDS011;33219;47.410;9.730;2022-11-15T18:33:57;9.10;;;5.33;;
47481;SDS011;33219;47.410;9.730;2022-11-15T18:36:27;9.35;;;5.55;;
47481;SDS011;33219;47.410;9.730;2022-11-15T18:38:57;11.93;;;5.55;;
47481;SDS011;33219;47.410;9.730;2022-11-15T18:41:27;8.73;;;5.58;;
47481;SDS011;33219;47.410;9.730;2022-11-15T18:43:56;10.50;;;5.58;;
47481;SDS011;33219;47.410;9.730;2022-11-15T18:46:26;11.10;;;6.10;;
47481;SDS011;33219;47.410;9.730;2022-11-15T18:48:56;8.75;;;5.55;;
47481;SDS011;33219;47.410;9.730;2022-11-15T18:51:26;7.33;;;5.42;;
47481;SDS011;33219;47.410;9.730;2022-11-15T18:53:57;8.30;;;5.58;;
47481;SDS011;33219;47.410;9.730;2022-11-15T18:56:27;10.63;;;5.70;;
47481;SDS011;33219;47.410;9.730;2022-11-15T18:58:58;13.70;;;7.03;;
47481;SDS011;33219;47.410;9.730;2022-11-15T19:01:28;16.93;;;7.55;;
47481;SDS011;33219;47.410;9.730;2022-11-15T19:04:10;9.93;;;6.12;;
47481;SDS011;33219;47.410;9.730;2022-11-15T19:06:41;10.28;;;6.17;;
47481;SDS011;33219;47.410;9.730;2022-11-15T19:09:12;13.48;;;6.67;;
47481;SDS011;33219;47.410;9.730;2022-11-15T19:11:41;12.10;;;7.55;;
47481;SDS011;33219;47.410;9.730;2022-11-15T19:14:11;10.58;;;6.72;;
47481;SDS011;33219;47.410;9.730;2022-11-15T19:16:44;11.63;;;6.85;;
47481;SDS011;33219;47.410;9.730;2022-11-15T19:19:18;11.83;;;6.40;;
47481;SDS011;33219;47.410;9.730;2022-11-15T19:21:50;11.85;;;7.30;;
47481;SDS011;33219;47.410;9.730;2022-11-15T19:24:19;14.53;;;9.13;;
47481;SDS011;33219;47.410;9.730;2022-11-15T19:26:46;18.48;;;11.10;;
47481;SDS011;33219;47.410;9.730;2022-11-15T19:29:14;20.05;;;13.68;;
47481;SDS011;33219;47.410;9.730;2022-11-15T19:31:43;21.62;;;14.38;;
47481;SDS011;33219;47.410;9.730;2022-11-15T19:34:12;24.23;;;15.95;;
47481;SDS011;33219;47.410;9.730;2022-11-15T19:36:41;26.35;;;16.35;;
47481;SDS011;33219;47.410;9.730;2022-11-15T19:39:10;26.33;;;17.45;;
47481;SDS011;33219;47.410;9.730;2022-11-15T19:44:10;26.50;;;17.23;;
47481;SDS011;33219;47.410;9.730;2022-11-15T19:46:39;28.10;;;16.67;;
47481;SDS011;33219;47.410;9.730;2022-11-15T19:49:07;28.87;;;18.40;;
47481;SDS011;33219;47.410;9.730;2022-11-15T19:51:35;27.27;;;17.87;;
47481;SDS011;33219;47.410;9.730;2022-11-15T19:54:03;29.27;;;18.45;;
47481;SDS011;33219;47.410;9.730;2022-11-15T19:56:33;27.00;;;17.90;;
47481;SDS011;33219;47.410;9.730;2022-11-15T19:59:02;27.77;;;19.05;;
47481;SDS011;33219;47.410;9.730;2022-11-15T20:01:32;30.92;;;19.27;;
47481;SDS011;33219;47.410;9.730;2022-11-15T20:04:04;24.23;;;17.03;;
47481;SDS011;33219;47.410;9.730;2022-11-15T20:06:36;18.53;;;12.50;;
47481;SDS011;33219;47.410;9.730;2022-11-15T20:09:10;27.00;;;16.48;;